Time;durP1;ratioP1;P1;durP2;ratioP2;P2;SDS_P1;SDS_P2;PMS_P1;PMS_P2;Temp;Humidity;BMP_temperature;BMP_pressure;BME280_temperature;BME280_humidity;BME280_pressure;Samples;Min_cycle;Max_cycle;Signal;HPM_P1;HPM_P2
2021/07/28 00:02:03;;;;;;;;;;;;;;;;;;5037638;28;1293;-81
2021/07/28 00:04:44;;;;;;;;;;;;;;;;;;5037906;28;1200;-80
2021/07/28 00:07:10;;;;;;;;;;;;;;;;;;5038981;28;876;-81
2021/07/28 00:09:46;;;;;;;;;;;;;;;;;;5037689;28;1193;-81
2021/07/28 00:14:51;;;;;;;;;;;;;;;;;;5039362;28;1977;-81
2021/07/28 00:25:17;;;;;;;;;;;;;;;;;;5038832;28;684;-82
2021/07/28 00:27:44;;;;;;;;;;;;;;;;;;5038587;28;838;-81
2021/07/28 00:30:11;;;;;;;;;;;;;;;;;;5037324;28;1240;-81
2021/07/28 00:32:38;;;;;;;;;;;;;;;;;;5038514;28;933;-81
2021/07/28 00:35:03;;;;;;;;;;;;;;;;;;5037321;28;1949;-81
2021/07/28 00:37:30;;;;;;;;;;;;;;;;;;5038772;28;1148;-81
2021/07/28 00:40:08;;;;;;;;;;;;;;;;;;5037215;28;1161;-81
2021/07/28 00:42:33;;;;;;;;;;;;;;;;;;5037089;28;1340;-81
2021/07/28 00:44:59;;;;;;;;;;;;;;;;;;5037063;28;1280;-80
2021/07/28 00:47:32;;;;;;;;;;;;;;;;;;5037099;28;1159;-81
2021/07/28 00:49:59;;;;;;;;;;;;;;;;;;5035706;28;1252;-81
2021/07/28 00:52:24;;;;;;;;;;;;;;;;;;5037194;28;1207;-82
2021/07/28 00:55:00;;;;;;;;;;;;;;;;;;5036806;28;1878;-81
2021/07/28 00:57:28;;;;;;;;;;;;;;;;;;5034840;28;1471;-81
2021/07/28 00:59:54;;;;;;;;;;;;;;;;;;5016992;28;1393;-81
2021/07/28 01:02:19;;;;;;;;;;;;;;;;;;5017040;28;1212;-81
2021/07/28 01:04:44;;;;;;;;;;;;;;;;;;5018114;28;997;-81
2021/07/28 01:07:26;;;;;;;;;;;;;;;;;;5017000;28;1201;-81
2021/07/28 01:12:51;;;;;;;;;;;;;;;;;;5016069;28;1040;-81
2021/07/28 01:23:37;;;;;;;;;;;;;;;;;;4996415;28;1077;-82
2021/07/28 01:26:02;;;;;;;;;;;;;;;;;;4979947;28;1313;-81
2021/07/28 01:28:28;;;;;;;;;;;;;;;;;;4996437;28;1065;-81
2021/07/28 01:30:53;;;;;;;;;;;;;;;;;;4980064;28;1194;-81
2021/07/28 01:33:27;;;;;;;;;;;;;;;;;;4979919;28;1373;-82
2021/07/28 01:35:55;;;;;;;;;;;;;;;;;;4979808;28;1308;-82
2021/07/28 01:38:25;;;;;;;;;;;;;;;;;;4996023;28;846;-82
2021/07/28 01:40:50;;;;;;;;;;;;;;;;;;4979820;28;1265;-82
2021/07/28 01:43:16;;;;;;;;;;;;;;;;;;4995923;28;1084;-82
2021/07/28 01:46:00;;;;;;;;;;;;;;;;;;4979731;28;1326;-82
2021/07/28 01:48:36;;;;;;;;;;;;;;;;;;4980551;28;1405;-82
2021/07/28 01:51:02;;;;;;;;;;;;;;;;;;4999036;28;1204;-82
2021/07/28 01:53:29;;;;;;;;;;;;;;;;;;5015404;28;1952;-82
2021/07/28 01:56:03;;;;;;;;;;;;;;;;;;5012482;28;1203;-82
2021/07/28 01:58:28;;;;;;;;;;;;;;;;;;5023148;28;1279;-81
2021/07/28 02:03:36;;;;;;;;;;;;;;;;;;5036845;28;1219;-81
2021/07/28 02:06:10;;;;;;;;;;;;;;;;;;5035705;28;1230;-81
2021/07/28 02:08:37;;;;;;;;;;;;;;;;;;5035637;28;1180;-82
2021/07/28 02:11:15;;;;;;;;;;;;;;;;;;5035555;28;1242;-81
2021/07/28 02:13:42;;;;;;;;;;;;;;;;;;5036540;28;1898;-82
2021/07/28 02:16:17;;;;;;;;;;;;;;;;;;5036937;28;1016;-81
2021/07/28 02:18:43;;;;;;;;;;;;;;;;;;5035383;28;1284;-81
2021/07/28 02:21:16;;;;;;;;;;;;;;;;;;5035452;28;1156;-81
2021/07/28 02:23:47;;;;;;;;;;;;;;;;;;5035506;28;1141;-82
2021/07/28 02:26:13;;;;;;;;;;;;;;;;;;5035450;28;1238;-82
2021/07/28 02:28:40;;;;;;;;;;;;;;;;;;5036467;28;898;-82
2021/07/28 02:31:19;;;;;;;;;;;;;;;;;;5036299;28;941;-81
2021/07/28 02:33:46;;;;;;;;;;;;;;;;;;5035243;28;1874;-81
2021/07/28 02:36:22;;;;;;;;;;;;;;;;;;5035031;28;1175;-81
2021/07/28 02:38:47;;;;;;;;;;;;;;;;;;5035015;28;1172;-82
2021/07/28 02:41:21;;;;;;;;;;;;;;;;;;5034891;28;1342;-81
2021/07/28 02:43:55;;;;;;;;;;;;;;;;;;5034955;28;1164;-82
2021/07/28 02:46:21;;;;;;;;;;;;;;;;;;5035037;28;1259;-81
2021/07/28 02:48:48;;;;;;;;;;;;;;;;;;5034831;28;1292;-82
2021/07/28 02:51:21;;;;;;;;;;;;;;;;;;5036140;28;933;-82
2021/07/28 02:53:47;;;;;;;;;;;;;;;;;;5034787;28;1878;-82
2021/07/28 02:56:21;;;;;;;;;;;;;;;;;;5036138;28;922;-81
2021/07/28 02:58:46;;;;;;;;;;;;;;;;;;5034401;28;1255;-81
2021/07/28 03:01:12;;;;;;;;;;;;;;;;;;5035867;28;1053;-82
2021/07/28 03:06:32;;;;;;;;;;;;;;;;;;5014146;28;1052;-82
2021/07/28 03:08:59;;;;;;;;;;;;;;;;;;5013976;28;1259;-81
2021/07/28 03:11:43;;;;;;;;;;;;;;;;;;5013987;28;1157;-81
2021/07/28 03:14:08;;;;;;;;;;;;;;;;;;5013399;28;1968;-82
2021/07/28 03:16:50;;;;;;;;;;;;;;;;;;5013999;28;1191;-81
2021/07/28 03:19:15;;;;;;;;;;;;;;;;;;5014063;28;1185;-82
2021/07/28 03:21:42;;;;;;;;;;;;;;;;;;5014136;28;958;-82
2021/07/28 03:24:24;;;;;;;;;;;;;;;;;;5014027;28;1304;-82
2021/07/28 03:26:51;;;;;;;;;;;;;;;;;;5014017;28;779;-82
2021/07/28 03:29:22;;;;;;;;;;;;;;;;;;5014169;28;1426;-81
2021/07/28 03:31:49;;;;;;;;;;;;;;;;;;5013760;28;1211;-81
2021/07/28 03:34:15;;;;;;;;;;;;;;;;;;5013838;28;1952;-81
2021/07/28 03:36:42;;;;;;;;;;;;;;;;;;5014004;28;1002;-82
2021/07/28 03:39:16;;;;;;;;;;;;;;;;;;5013976;28;910;-81
2021/07/28 03:41:42;;;;;;;;;;;;;;;;;;5013900;28;870;-81
2021/07/28 03:44:18;;;;;;;;;;;;;;;;;;5031077;28;1135;-82
2021/07/28 03:46:44;;;;;;;;;;;;;;;;;;5036587;28;1079;-81
2021/07/28 03:49:17;;;;;;;;;;;;;;;;;;5054116;28;1267;-82
2021/07/28 03:51:42;;;;;;;;;;;;;;;;;;5055577;28;906;-82
2021/07/28 03:54:17;;;;;;;;;;;;;;;;;;5054062;28;1948;-82
2021/07/28 03:56:42;;;;;;;;;;;;;;;;;;5054028;28;1347;-82
2021/07/28 03:59:07;;;;;;;;;;;;;;;;;;5053880;28;1234;-81
2021/07/28 04:01:49;;;;;;;;;;;;;;;;;;5055010;28;1270;-82
2021/07/28 04:04:20;;;;;;;;;;;;;;;;;;5052897;28;1208;-81
2021/07/28 04:06:45;;;;;;;;;;;;;;;;;;5053988;28;1216;-82
2021/07/28 04:12:08;;;;;;;;;;;;;;;;;;4993972;28;1095;-81
2021/07/28 04:14:33;;;;;;;;;;;;;;;;;;4977591;28;1902;-82
2021/07/28 04:16:59;;;;;;;;;;;;;;;;;;4977725;28;1283;-82
2021/07/28 04:19:25;;;;;;;;;;;;;;;;;;4993969;28;1146;-81
2021/07/28 04:22:00;;;;;;;;;;;;;;;;;;4993946;28;1001;-82
2021/07/28 04:24:27;;;;;;;;;;;;;;;;;;4995112;28;895;-83
2021/07/28 04:26:54;;;;;;;;;;;;;;;;;;4997445;28;1025;-82
2021/07/28 04:29:20;;;;;;;;;;;;;;;;;;4981190;28;1233;-81
2021/07/28 04:34:15;;;;;;;;;;;;;;;;;;4997292;28;1878;-81
2021/07/28 04:36:41;;;;;;;;;;;;;;;;;;4980790;28;1214;-81
2021/07/28 04:39:08;;;;;;;;;;;;;;;;;;4980738;28;1145;-82
2021/07/28 04:44:02;;;;;;;;;;;;;;;;;;4997092;28;843;-81
2021/07/28 04:46:27;;;;;;;;;;;;;;;;;;4980699;28;1339;-82
2021/07/28 04:48:55;;;;;;;;;;;;;;;;;;5020705;28;1271;-81
2021/07/28 04:51:20;;;;;;;;;;;;;;;;;;5056959;28;1388;-81
2021/07/28 04:53:46;;;;;;;;;;;;;;;;;;5058207;28;1875;-81
2021/07/28 04:56:13;;;;;;;;;;;;;;;;;;5056829;28;1204;-80
2021/07/28 04:58:38;;;;;;;;;;;;;;;;;;5053322;28;1248;-80
2021/07/28 05:01:04;;;;;;;;;;;;;;;;;;5038069;28;1025;-80
2021/07/28 05:03:41;;;;;;;;;;;;;;;;;;5053389;28;1273;-80
2021/07/28 05:06:15;;;;;;;;;;;;;;;;;;5038204;28;873;-82
2021/07/28 05:11:11;;;;;;;;;;;;;;;;;;5038449;28;787;-82
2021/07/28 05:13:36;;;;;;;;;;;;;;;;;;5053361;28;1902;-82
2021/07/28 05:16:03;;;;;;;;;;;;;;;;;;5053504;28;1147;-82
2021/07/28 05:18:40;;;;;;;;;;;;;;;;;;5053256;28;1179;-82
2021/07/28 05:21:25;;;;;;;;;;;;;;;;;;5053354;28;1548;-82
2021/07/28 05:23:52;;;;;;;;;;;;;;;;;;5037832;28;936;-83
2021/07/28 05:26:20;;;;;;;;;;;;;;;;;;5053424;28;1223;-82
2021/07/28 05:31:16;;;;;;;;;;;;;;;;;;5038049;28;862;-82
2021/07/28 05:36:17;;;;;;;;;;;;;;;;;;5037190;28;819;-82
2021/07/28 05:38:43;;;;;;;;;;;;;;;;;;5037661;28;929;-82
2021/07/28 05:41:15;;;;;;;;;;;;;;;;;;5052902;28;1200;-82
2021/07/28 05:43:42;;;;;;;;;;;;;;;;;;5037436;28;870;-82
2021/07/28 05:46:19;;;;;;;;;;;;;;;;;;5037337;28;838;-82
2021/07/28 05:49:00;;;;;;;;;;;;;;;;;;5037354;28;807;-82
2021/07/28 05:51:27;;;;;;;;;;;;;;;;;;5037337;28;870;-82
2021/07/28 05:54:03;;;;;;;;;;;;;;;;;;5052460;28;1878;-83
2021/07/28 05:56:40;;;;;;;;;;;;;;;;;;5052498;28;1209;-81
2021/07/28 05:59:05;;;;;;;;;;;;;;;;;;5052430;28;1245;-81
2021/07/28 06:04:14;;;;;;;;;;;;;;;;;;5037644;28;874;-82
2021/07/28 06:09:33;;;;;;;;;;;;;;;;;;5034939;28;1029;-82
2021/07/28 06:12:08;;;;;;;;;;;;;;;;;;5034938;28;1075;-82
2021/07/28 06:14:35;;;;;;;;;;;;;;;;;;5018176;28;1968;-81
2021/07/28 06:17:00;;;;;;;;;;;;;;;;;;5018200;28;1266;-81
2021/07/28 06:19:32;;;;;;;;;;;;;;;;;;5018005;28;1287;-82
2021/07/28 06:21:57;;;;;;;;;;;;;;;;;;5034656;28;866;-82
2021/07/28 06:24:25;;;;;;;;;;;;;;;;;;5018024;28;1277;-82
2021/07/28 06:26:52;;;;;;;;;;;;;;;;;;5034673;28;926;-82
2021/07/28 06:29:17;;;;;;;;;;;;;;;;;;5017827;28;1277;-82
2021/07/28 06:31:52;;;;;;;;;;;;;;;;;;5034486;28;984;-82
2021/07/28 06:34:18;;;;;;;;;;;;;;;;;;5034533;28;1936;-82
2021/07/28 06:36:44;;;;;;;;;;;;;;;;;;5017862;28;1320;-82
2021/07/28 06:39:29;;;;;;;;;;;;;;;;;;5034397;28;1081;-82
2021/07/28 06:41:55;;;;;;;;;;;;;;;;;;5017623;28;1412;-82
2021/07/28 06:44:22;;;;;;;;;;;;;;;;;;5034123;28;914;-82
2021/07/28 06:46:53;;;;;;;;;;;;;;;;;;5028638;28;1304;-82
2021/07/28 06:49:18;;;;;;;;;;;;;;;;;;5051038;28;1278;-82
2021/07/28 06:51:45;;;;;;;;;;;;;;;;;;5051402;28;1076;-82
2021/07/28 06:54:22;;;;;;;;;;;;;;;;;;5036011;28;1933;-82
2021/07/28 06:59:31;;;;;;;;;;;;;;;;;;5045554;28;970;-82
2021/07/28 07:01:57;;;;;;;;;;;;;;;;;;5054552;28;1251;-81
2021/07/28 07:04:23;;;;;;;;;;;;;;;;;;5055395;28;1152;-81
2021/07/28 07:09:41;;;;;;;;;;;;;;;;;;5039552;28;1384;-81
2021/07/28 07:12:08;;;;;;;;;;;;;;;;;;5033415;28;1181;-82
2021/07/28 07:14:36;;;;;;;;;;;;;;;;;;5036091;28;1902;-82
2021/07/28 07:17:13;;;;;;;;;;;;;;;;;;5049710;28;1369;-83
2021/07/28 07:22:23;;;;;;;;;;;;;;;;;;5033593;28;692;-84
2021/07/28 07:24:49;;;;;;;;;;;;;;;;;;5033667;28;918;-83
2021/07/28 07:27:16;;;;;;;;;;;;;;;;;;5033441;28;1322;-83
2021/07/28 07:29:58;;;;;;;;;;;;;;;;;;5034836;28;1420;-82
2021/07/28 07:32:29;;;;;;;;;;;;;;;;;;5042714;28;1377;-84
2021/07/28 07:34:54;;;;;;;;;;;;;;;;;;5052332;28;1935;-84
2021/07/28 07:37:21;;;;;;;;;;;;;;;;;;5033705;28;1241;-84
2021/07/28 07:39:57;;;;;;;;;;;;;;;;;;5033289;28;1183;-84
2021/07/28 07:42:23;;;;;;;;;;;;;;;;;;5033300;28;1295;-85
2021/07/28 07:45:09;;;;;;;;;;;;;;;;;;5033585;28;1096;-84
2021/07/28 07:47:43;;;;;;;;;;;;;;;;;;5067175;28;1428;-85
2021/07/28 07:50:08;;;;;;;;;;;;;;;;;;5074869;28;1413;-84
2021/07/28 07:52:52;;;;;;;;;;;;;;;;;;5075186;28;1280;-84
2021/07/28 07:55:19;;;;;;;;;;;;;;;;;;5075516;28;1944;-84
2021/07/28 07:57:51;;;;;;;;;;;;;;;;;;5074609;28;1213;-83
2021/07/28 08:00:16;;;;;;;;;;;;;;;;;;5077645;28;1251;-84
2021/07/28 08:03:00;;;;;;;;;;;;;;;;;;5079683;28;1062;-83
2021/07/28 08:05:34;;;;;;;;;;;;;;;;;;5037932;28;1152;-84
2021/07/28 08:08:05;;;;;;;;;;;;;;;;;;5050145;28;1410;-83
2021/07/28 08:10:41;;;;;;;;;;;;;;;;;;5058160;28;1084;-85
2021/07/28 08:13:06;;;;;;;;;;;;;;;;;;5058312;28;1274;-85
2021/07/28 08:15:33;;;;;;;;;;;;;;;;;;5058920;28;1971;-89
2021/07/28 08:23:13;;;;;;;;;;;;;;;;;;5059479;28;811;-85
2021/07/28 08:30:55;;;;;;;;;;;;;;;;;;5059288;28;799;-91
2021/07/28 08:33:21;;;;;;;;;;;;;;;;;;5053750;28;1248;-91
2021/07/28 08:41:20;;;;;;;;;;;;;;;;;;5058508;28;1364;-84
2021/07/28 08:46:32;;;;;;;;;;;;;;;;;;5060800;28;604;-96
2021/07/28 08:51:52;;;;;;;;;;;;;;;;;;5053739;28;1140;-89
2021/07/28 08:54:38;;;;;;;;;;;;;;;;;;5057408;28;1890;-87
2021/07/28 08:57:05;;;;;;;;;;;;;;;;;;5057385;28;1145;-87
2021/07/28 08:59:30;;;;;;;;;;;;;;;;;;5056743;28;1369;-90
2021/07/28 09:01:55;;;;;;;;;;;;;;;;;;5057126;28;1356;-90
2021/07/28 09:04:34;;;;;;;;;;;;;;;;;;5057105;28;1303;-91
2021/07/28 09:07:07;;;;;;;;;;;;;;;;;;5053612;28;1322;-90
2021/07/28 09:12:18;;;;;;;;;;;;;;;;;;5037503;28;593;-88
2021/07/28 09:20:25;;;;;;;;;;;;;;;;;;4976951;28;1235;-87
2021/07/28 09:23:10;;;;;;;;;;;;;;;;;;4976871;28;1660;-88
2021/07/28 09:28:21;;;;;;;;;;;;;;;;;;4977043;28;1185;-88
2021/07/28 09:36:24;;;;;;;;;;;;;;;;;;4976625;28;1473;-87
2021/07/28 09:41:34;;;;;;;;;;;;;;;;;;4976629;28;1588;-92
2021/07/28 09:44:00;;;;;;;;;;;;;;;;;;4979223;28;1218;-86
2021/07/28 09:46:26;;;;;;;;;;;;;;;;;;4976682;28;1267;-85
2021/07/28 09:48:53;;;;;;;;;;;;;;;;;;4975664;28;1635;-86
2021/07/28 09:57:09;;;;;;;;;;;;;;;;;;4934818;29;1067;-85
2021/07/28 09:59:35;;;;;;;;;;;;;;;;;;4937515;29;991;-85
2021/07/28 10:05:13;;;;;;;;;;;;;;;;;;4937920;29;1059;-85
2021/07/28 10:07:40;;;;;;;;;;;;;;;;;;4938151;29;902;-86
2021/07/28 10:10:10;;;;;;;;;;;;;;;;;;4937715;29;1232;-85
2021/07/28 10:12:35;;;;;;;;;;;;;;;;;;4936724;29;1303;-85
2021/07/28 10:15:00;;;;;;;;;;;;;;;;;;4937307;29;1911;-84
2021/07/28 10:17:45;;;;;;;;;;;;;;;;;;4937710;29;1309;-85
2021/07/28 10:20:17;;;;;;;;;;;;;;;;;;4937441;29;1277;-86
2021/07/28 10:22:42;;;;;;;;;;;;;;;;;;4937367;29;1292;-86
2021/07/28 10:25:08;;;;;;;;;;;;;;;;;;4937620;29;1245;-85
2021/07/28 10:27:34;;;;;;;;;;;;;;;;;;4937356;29;1294;-86
2021/07/28 10:30:14;;;;;;;;;;;;;;;;;;4980504;28;1174;-85
2021/07/28 10:32:40;;;;;;;;;;;;;;;;;;5014869;28;787;-85
2021/07/28 10:35:25;;;;;;;;;;;;;;;;;;5021188;28;1890;-85
2021/07/28 10:37:51;;;;;;;;;;;;;;;;;;5033429;28;924;-86
2021/07/28 10:40:35;;;;;;;;;;;;;;;;;;5033319;28;1181;-85
2021/07/28 10:43:11;;;;;;;;;;;;;;;;;;5048473;28;1376;-85
2021/07/28 10:45:48;;;;;;;;;;;;;;;;;;5048475;28;1179;-85
2021/07/28 10:48:13;;;;;;;;;;;;;;;;;;5048518;28;1241;-85
2021/07/28 10:53:38;;;;;;;;;;;;;;;;;;5034226;28;937;-84
2021/07/28 10:56:18;;;;;;;;;;;;;;;;;;5017562;28;1891;-84
2021/07/28 10:58:44;;;;;;;;;;;;;;;;;;5015105;28;1245;-84
2021/07/28 11:01:09;;;;;;;;;;;;;;;;;;5017543;28;1157;-84
2021/07/28 11:03:51;;;;;;;;;;;;;;;;;;5029362;28;1309;-84
2021/07/28 11:06:18;;;;;;;;;;;;;;;;;;5028931;28;1215;-85
2021/07/28 11:08:44;;;;;;;;;;;;;;;;;;5033147;28;1189;-85
2021/07/28 11:11:10;;;;;;;;;;;;;;;;;;5017553;28;1196;-85
2021/07/28 11:13:54;;;;;;;;;;;;;;;;;;5017359;28;1258;-84
2021/07/28 11:16:29;;;;;;;;;;;;;;;;;;5017342;28;1519;-85
2021/07/28 11:21:48;;;;;;;;;;;;;;;;;;5034433;28;1345;-86
2021/07/28 11:24:14;;;;;;;;;;;;;;;;;;5033977;28;1404;-85
2021/07/28 11:26:41;;;;;;;;;;;;;;;;;;5033871;28;1175;-85
2021/07/28 11:29:08;;;;;;;;;;;;;;;;;;5042340;28;1396;-85
2021/07/28 11:31:44;;;;;;;;;;;;;;;;;;5053321;28;1341;-85
2021/07/28 11:34:11;;;;;;;;;;;;;;;;;;5051902;28;1886;-86
2021/07/28 11:36:42;;;;;;;;;;;;;;;;;;5038320;28;1545;-84
2021/07/28 11:39:13;;;;;;;;;;;;;;;;;;5035318;28;1250;-80
2021/07/28 11:41:47;;;;;;;;;;;;;;;;;;5055012;28;1349;-83
2021/07/28 11:44:23;;;;;;;;;;;;;;;;;;5054688;28;1365;-81
2021/07/28 11:46:50;;;;;;;;;;;;;;;;;;5037771;28;1287;-82
2021/07/28 11:49:16;;;;;;;;;;;;;;;;;;5047347;28;1326;-83
2021/07/28 11:51:56;;;;;;;;;;;;;;;;;;5037272;28;1534;-83
2021/07/28 11:54:27;;;;;;;;;;;;;;;;;;5048659;28;1886;-85
2021/07/28 11:57:02;;;;;;;;;;;;;;;;;;5039124;28;1228;-92
2021/07/28 11:59:31;;;;;;;;;;;;;;;;;;5040146;28;1345;-91
2021/07/28 12:01:56;;;;;;;;;;;;;;;;;;5059182;28;1590;-94
2021/07/28 12:04:35;;;;;;;;;;;;;;;;;;5059723;28;1555;-92
2021/07/28 12:07:11;;;;;;;;;;;;;;;;;;5046851;28;1621;-91
2021/07/28 12:09:42;;;;;;;;;;;;;;;;;;5059668;28;1274;-91
2021/07/28 12:12:19;;;;;;;;;;;;;;;;;;5060867;28;1328;-93
2021/07/28 12:15:05;;;;;;;;;;;;;;;;;;5062474;28;1910;-94
2021/07/28 12:20:14;;;;;;;;;;;;;;;;;;5080804;28;605;-91
2021/07/28 12:25:09;;;;;;;;;;;;;;;;;;5073511;28;1412;-91
2021/07/28 12:27:35;;;;;;;;;;;;;;;;;;5060125;28;1198;-91
2021/07/28 12:30:00;;;;;;;;;;;;;;;;;;5059436;28;1644;-92
2021/07/28 12:32:43;;;;;;;;;;;;;;;;;;5059131;28;1310;-92
2021/07/28 12:35:17;;;;;;;;;;;;;;;;;;5058876;28;1890;-91
2021/07/28 12:37:42;;;;;;;;;;;;;;;;;;5058779;28;1222;-92
2021/07/28 12:40:19;;;;;;;;;;;;;;;;;;5058970;28;1156;-91
2021/07/28 12:43:01;;;;;;;;;;;;;;;;;;5058354;28;1188;-91
2021/07/28 12:45:28;;;;;;;;;;;;;;;;;;5058672;28;1278;-91
2021/07/28 12:48:00;;;;;;;;;;;;;;;;;;5059101;28;1390;-92
2021/07/28 12:53:30;;;;;;;;;;;;;;;;;;5058752;28;1741;-93
2021/07/28 13:01:49;;;;;;;;;;;;;;;;;;5039163;28;625;-92
2021/07/28 13:04:15;;;;;;;;;;;;;;;;;;5038039;28;1274;-92
2021/07/28 13:12:33;;;;;;;;;;;;;;;;;;5036528;28;598;-89
2021/07/28 13:17:54;;;;;;;;;;;;;;;;;;5036813;28;1598;-90
2021/07/28 13:20:32;;;;;;;;;;;;;;;;;;5018564;28;1393;-94
2021/07/28 13:25:41;;;;;;;;;;;;;;;;;;5018012;28;1523;-91
2021/07/28 13:28:18;;;;;;;;;;;;;;;;;;5017961;28;1366;-91
2021/07/28 13:30:54;;;;;;;;;;;;;;;;;;5006815;28;1370;-91
2021/07/28 13:36:03;;;;;;;;;;;;;;;;;;5015680;28;1891;-92
2021/07/28 13:38:40;;;;;;;;;;;;;;;;;;5015513;28;1222;-91
2021/07/28 13:49:30;;;;;;;;;;;;;;;;;;5023310;28;1569;-91
2021/07/28 13:52:14;;;;;;;;;;;;;;;;;;5016307;28;1335;-91
2021/07/28 13:57:45;;;;;;;;;;;;;;;;;;5016953;28;621;-90
2021/07/28 14:00:13;;;;;;;;;;;;;;;;;;5023760;28;1361;-90
2021/07/28 14:02:39;;;;;;;;;;;;;;;;;;5052799;28;1257;-91
2021/07/28 14:05:23;;;;;;;;;;;;;;;;;;5052667;28;1207;-90
2021/07/28 14:10:38;;;;;;;;;;;;;;;;;;5036956;28;609;-89
2021/07/28 14:13:03;;;;;;;;;;;;;;;;;;5052400;28;1341;-90
2021/07/28 14:15:35;;;;;;;;;;;;;;;;;;5052331;28;1977;-90
2021/07/28 14:18:09;;;;;;;;;;;;;;;;;;5052400;28;1267;-90
2021/07/28 14:23:36;;;;;;;;;;;;;;;;;;5036015;28;935;-90
2021/07/28 14:29:07;;;;;;;;;;;;;;;;;;5036671;28;590;-90
2021/07/28 14:31:32;;;;;;;;;;;;;;;;;;5036782;28;878;-90
2021/07/28 14:36:52;;;;;;;;;;;;;;;;;;5036608;28;615;-90
2021/07/28 14:39:26;;;;;;;;;;;;;;;;;;5051924;28;1180;-90
2021/07/28 14:42:04;;;;;;;;;;;;;;;;;;5036514;28;882;-90
2021/07/28 14:47:13;;;;;;;;;;;;;;;;;;5036310;28;668;-90
2021/07/28 14:55:12;;;;;;;;;;;;;;;;;;5036379;28;1886;-91
2021/07/28 14:57:45;;;;;;;;;;;;;;;;;;5051829;28;1442;-90
2021/07/28 15:00:10;;;;;;;;;;;;;;;;;;5050531;28;1226;-89
2021/07/28 15:02:35;;;;;;;;;;;;;;;;;;5050768;28;1200;-90
2021/07/28 15:10:28;;;;;;;;;;;;;;;;;;5035730;28;618;-90
2021/07/28 15:18:28;;;;;;;;;;;;;;;;;;5036044;28;641;-90
2021/07/28 15:23:44;;;;;;;;;;;;;;;;;;5036144;28;594;-90
2021/07/28 15:26:20;;;;;;;;;;;;;;;;;;5034741;28;1169;-90
2021/07/28 15:31:29;;;;;;;;;;;;;;;;;;5035822;28;660;-90
2021/07/28 15:33:54;;;;;;;;;;;;;;;;;;5043868;28;895;-90
2021/07/28 15:36:21;;;;;;;;;;;;;;;;;;5055041;28;1871;-90
2021/07/28 15:41:32;;;;;;;;;;;;;;;;;;5055705;28;582;-90
2021/07/28 15:46:56;;;;;;;;;;;;;;;;;;5055595;28;1030;-90
2021/07/28 15:52:05;;;;;;;;;;;;;;;;;;5055654;28;663;-89
2021/07/28 15:54:32;;;;;;;;;;;;;;;;;;5054124;28;1953;-90
2021/07/28 15:59:55;;;;;;;;;;;;;;;;;;5055428;28;676;-90
2021/07/28 16:02:20;;;;;;;;;;;;;;;;;;5053946;28;1327;-90
2021/07/28 16:13:19;;;;;;;;;;;;;;;;;;4994300;28;618;-90
2021/07/28 16:16:03;;;;;;;;;;;;;;;;;;4977924;28;1912;-90
2021/07/28 16:18:30;;;;;;;;;;;;;;;;;;4977722;28;1257;-90
2021/07/28 16:21:15;;;;;;;;;;;;;;;;;;4980333;28;1186;-89
2021/07/28 16:29:07;;;;;;;;;;;;;;;;;;4997764;28;606;-89
2021/07/28 16:31:32;;;;;;;;;;;;;;;;;;4981184;28;1280;-90
2021/07/28 16:36:41;;;;;;;;;;;;;;;;;;4996509;28;1089;-90
2021/07/28 16:41:50;;;;;;;;;;;;;;;;;;4997494;28;760;-89
2021/07/28 16:44:31;;;;;;;;;;;;;;;;;;5039380;28;1181;-90
2021/07/28 16:47:12;;;;;;;;;;;;;;;;;;5057557;28;1165;-90
2021/07/28 16:49:46;;;;;;;;;;;;;;;;;;5057363;28;1320;-88
2021/07/28 16:52:19;;;;;;;;;;;;;;;;;;5057192;28;1184;-87
2021/07/28 16:54:44;;;;;;;;;;;;;;;;;;5057221;28;1870;-88
2021/07/28 16:57:22;;;;;;;;;;;;;;;;;;5057257;28;1299;-87
2021/07/28 17:02:16;;;;;;;;;;;;;;;;;;5058169;28;1216;-87
2021/07/28 17:07:37;;;;;;;;;;;;;;;;;;5058210;28;652;-89
2021/07/28 17:10:23;;;;;;;;;;;;;;;;;;5057006;28;1337;-89
2021/07/28 17:13:04;;;;;;;;;;;;;;;;;;5057035;28;1275;-89
2021/07/28 17:18:29;;;;;;;;;;;;;;;;;;5057896;28;1112;-89
2021/07/28 17:21:07;;;;;;;;;;;;;;;;;;5057052;28;1184;-89
2021/07/28 17:23:41;;;;;;;;;;;;;;;;;;5056612;28;1205;-89
2021/07/28 17:26:13;;;;;;;;;;;;;;;;;;5056678;28;1172;-89
2021/07/28 17:31:34;;;;;;;;;;;;;;;;;;5057009;28;649;-89
2021/07/28 17:34:12;;;;;;;;;;;;;;;;;;5056413;28;1287;-89
2021/07/28 17:36:56;;;;;;;;;;;;;;;;;;5056376;28;1172;-89
2021/07/28 17:44:49;;;;;;;;;;;;;;;;;;5057559;28;617;-90
2021/07/28 17:47:25;;;;;;;;;;;;;;;;;;5056288;28;1230;-90
2021/07/28 17:50:11;;;;;;;;;;;;;;;;;;5056206;28;1180;-90
2021/07/28 17:55:20;;;;;;;;;;;;;;;;;;5057235;28;1874;-90
2021/07/28 17:57:52;;;;;;;;;;;;;;;;;;5056000;28;1312;-89
2021/07/28 18:00:19;;;;;;;;;;;;;;;;;;5054341;28;1321;-88
2021/07/28 18:02:44;;;;;;;;;;;;;;;;;;5056037;28;1295;-89
2021/07/28 18:05:11;;;;;;;;;;;;;;;;;;5056030;28;1240;-89
2021/07/28 18:07:47;;;;;;;;;;;;;;;;;;5056968;28;929;-89
2021/07/28 18:12:56;;;;;;;;;;;;;;;;;;5057129;28;605;-89
2021/07/28 18:15:43;;;;;;;;;;;;;;;;;;5055560;28;1977;-90
2021/07/28 18:23:29;;;;;;;;;;;;;;;;;;5056872;28;687;-91
2021/07/28 18:25:56;;;;;;;;;;;;;;;;;;5055488;28;1336;-91
2021/07/28 18:34:04;;;;;;;;;;;;;;;;;;5055708;28;944;-90
2021/07/28 18:36:29;;;;;;;;;;;;;;;;;;5054432;28;1237;-90
2021/07/28 18:44:28;;;;;;;;;;;;;;;;;;5056340;28;622;-90
2021/07/28 18:47:06;;;;;;;;;;;;;;;;;;5056106;28;984;-91
2021/07/28 18:52:15;;;;;;;;;;;;;;;;;;5056396;28;649;-91
2021/07/28 18:55:02;;;;;;;;;;;;;;;;;;5054683;28;1878;-91
2021/07/28 19:00:24;;;;;;;;;;;;;;;;;;5056016;28;1008;-90
2021/07/28 19:02:49;;;;;;;;;;;;;;;;;;5054869;28;1203;-89
2021/07/28 19:05:22;;;;;;;;;;;;;;;;;;5054761;28;1545;-89
2021/07/28 19:07:49;;;;;;;;;;;;;;;;;;5054810;28;1356;-89
2021/07/28 19:10:36;;;;;;;;;;;;;;;;;;5054775;28;1298;-90
2021/07/28 19:18:32;;;;;;;;;;;;;;;;;;5056263;28;637;-91
2021/07/28 19:24:06;;;;;;;;;;;;;;;;;;5055960;28;594;-92
2021/07/28 19:26:45;;;;;;;;;;;;;;;;;;5054584;28;1144;-91
2021/07/28 19:31:53;;;;;;;;;;;;;;;;;;5055674;28;637;-92
2021/07/28 19:37:03;;;;;;;;;;;;;;;;;;5055683;28;660;-93
2021/07/28 19:44:56;;;;;;;;;;;;;;;;;;5055788;28;609;-92
2021/07/28 19:50:17;;;;;;;;;;;;;;;;;;5055561;28;586;-92
2021/07/28 19:52:50;;;;;;;;;;;;;;;;;;5054417;28;1200;-91
2021/07/28 19:55:23;;;;;;;;;;;;;;;;;;5055474;28;1890;-90
2021/07/28 20:03:17;;;;;;;;;;;;;;;;;;5052911;28;1032;-90
2021/07/28 20:11:10;;;;;;;;;;;;;;;;;;5059351;28;617;-90
2021/07/28 20:13:46;;;;;;;;;;;;;;;;;;5058159;28;1266;-90
2021/07/28 20:24:31;;;;;;;;;;;;;;;;;;5058992;28;589;-91
2021/07/28 20:26:58;;;;;;;;;;;;;;;;;;5057968;28;1199;-90
2021/07/28 20:32:07;;;;;;;;;;;;;;;;;;5059039;28;609;-90
2021/07/28 20:37:28;;;;;;;;;;;;;;;;;;5058878;28;640;-90
2021/07/28 20:39:55;;;;;;;;;;;;;;;;;;5057558;28;1309;-90
2021/07/28 20:42:26;;;;;;;;;;;;;;;;;;5057541;28;1186;-90
2021/07/28 20:55:59;;;;;;;;;;;;;;;;;;5058411;28;1937;-90
2021/07/28 20:58:32;;;;;;;;;;;;;;;;;;5052230;28;1270;-90
2021/07/28 21:01:17;;;;;;;;;;;;;;;;;;5037210;28;1314;-90
2021/07/28 21:03:42;;;;;;;;;;;;;;;;;;5036978;28;1246;-90
2021/07/28 21:06:23;;;;;;;;;;;;;;;;;;5036251;28;1247;-90
2021/07/28 21:09:05;;;;;;;;;;;;;;;;;;5037091;28;1311;-90
2021/07/28 21:17:07;;;;;;;;;;;;;;;;;;5038297;28;614;-91
2021/07/28 21:19:53;;;;;;;;;;;;;;;;;;5036990;28;1208;-91
2021/07/28 21:25:11;;;;;;;;;;;;;;;;;;5057911;28;1217;-91
2021/07/28 21:33:26;;;;;;;;;;;;;;;;;;4996894;28;957;-90
2021/07/28 21:41:18;;;;;;;;;;;;;;;;;;4996434;28;1016;-90
2021/07/28 21:43:55;;;;;;;;;;;;;;;;;;4996247;28;1227;-90
2021/07/28 21:54:44;;;;;;;;;;;;;;;;;;4996068;28;1943;-89
2021/07/28 21:57:28;;;;;;;;;;;;;;;;;;4996130;28;1432;-90
2021/07/28 22:00:01;;;;;;;;;;;;;;;;;;4996137;28;939;-90
2021/07/28 22:02:26;;;;;;;;;;;;;;;;;;4995513;28;1312;-90
2021/07/28 22:05:11;;;;;;;;;;;;;;;;;;4995849;28;1223;-90
2021/07/28 22:10:19;;;;;;;;;;;;;;;;;;5017376;28;590;-89
2021/07/28 22:12:53;;;;;;;;;;;;;;;;;;5032546;28;1291;-90
2021/07/28 22:15:26;;;;;;;;;;;;;;;;;;5032650;28;1974;-90
2021/07/28 22:17:58;;;;;;;;;;;;;;;;;;5032414;28;1208;-91
2021/07/28 22:20:35;;;;;;;;;;;;;;;;;;5032546;28;1182;-91
2021/07/28 22:31:40;;;;;;;;;;;;;;;;;;5015090;28;662;-89
2021/07/28 22:34:23;;;;;;;;;;;;;;;;;;4998570;28;1255;-89
2021/07/28 22:42:32;;;;;;;;;;;;;;;;;;5014944;28;582;-90
2021/07/28 22:48:02;;;;;;;;;;;;;;;;;;5014891;28;1047;-89
2021/07/28 22:55:54;;;;;;;;;;;;;;;;;;5116925;28;1979;-87
2021/07/28 22:58:19;;;;;;;;;;;;;;;;;;5098635;28;1288;-86
2021/07/28 23:08:56;;;;;;;;;;;;;;;;;;5116716;28;581;-89
2021/07/28 23:14:04;;;;;;;;;;;;;;;;;;5116689;28;639;-88
2021/07/28 23:16:49;;;;;;;;;;;;;;;;;;5116345;28;1943;-89
2021/07/28 23:19:23;;;;;;;;;;;;;;;;;;5098271;28;1179;-89
2021/07/28 23:22:01;;;;;;;;;;;;;;;;;;5098226;28;1231;-90
2021/07/28 23:24:33;;;;;;;;;;;;;;;;;;5098052;28;1280;-89
2021/07/28 23:29:42;;;;;;;;;;;;;;;;;;5115491;28;1037;-88
2021/07/28 23:34:51;;;;;;;;;;;;;;;;;;5116405;28;1953;-88
2021/07/28 23:40:01;;;;;;;;;;;;;;;;;;5116372;28;636;-89
2021/07/28 23:42:43;;;;;;;;;;;;;;;;;;5098012;28;1282;-88
2021/07/28 23:50:36;;;;;;;;;;;;;;;;;;5116172;28;684;-90
2021/07/28 23:53:01;;;;;;;;;;;;;;;;;;5097721;28;1314;-90
2021/07/28 23:55:26;;;;;;;;;;;;;;;;;;5097560;28;1968;-89
